createdAt,value
2022-08-17T00:00:34.588Z,5.82
2022-08-17T00:03:19.749Z,6.25
2022-08-17T00:05:52.831Z,5.43
2022-08-17T00:08:37.804Z,5.53
2022-08-17T00:12:40.524Z,6.10
2022-08-17T00:14:54.588Z,5.97
2022-08-17T00:17:27.189Z,5.90
2022-08-17T00:20:23.364Z,5.60
2022-08-17T00:23:10.297Z,5.47
2022-08-17T00:25:40.825Z,5.78
2022-08-17T00:28:08.392Z,5.75
2022-08-17T00:30:53.058Z,5.47
2022-08-17T00:33:27.053Z,5.60
2022-08-17T00:35:57.447Z,5.38
2022-08-17T00:38:26.374Z,5.25
2022-08-17T00:41:00.113Z,5.25
2022-08-17T00:43:31.945Z,5.82
2022-08-17T00:46:01.663Z,4.97
2022-08-17T00:48:30.731Z,5.32
2022-08-17T00:51:05.157Z,6.45
2022-08-17T00:53:34.907Z,5.50
2022-08-17T00:56:06.100Z,5.15
2022-08-17T00:58:36.194Z,5.35
2022-08-17T01:01:05.750Z,5.60
2022-08-17T01:03:35.139Z,5.05
2022-08-17T01:06:05.949Z,5.38
2022-08-17T01:08:33.609Z,5.72
2022-08-17T01:11:02.408Z,5.03
2022-08-17T01:13:39.755Z,5.57
2022-08-17T01:16:16.129Z,5.32
2022-08-17T01:18:44.606Z,6.60
2022-08-17T01:21:20.572Z,4.88
2022-08-17T01:23:49.655Z,5.70
2022-08-17T01:26:18.088Z,5.10
2022-08-17T01:28:53.655Z,5.00
2022-08-17T01:31:24.179Z,5.05
2022-08-17T01:33:51.755Z,5.03
2022-08-17T01:36:19.137Z,5.63
2022-08-17T01:38:46.673Z,4.57
2022-08-17T01:41:16.776Z,5.35
2022-08-17T01:43:47.774Z,5.45
2022-08-17T01:46:17.130Z,5.50
2022-08-17T01:48:47.696Z,5.47
2022-08-17T01:51:16.114Z,5.40
2022-08-17T01:53:49.067Z,5.28
2022-08-17T01:56:21.894Z,5.65
2022-08-17T01:58:50.223Z,5.40
2022-08-17T02:01:20.137Z,4.88
2022-08-17T02:03:59.488Z,5.68
2022-08-17T02:06:29.742Z,5.53
2022-08-17T02:09:01.740Z,5.25
2022-08-17T02:11:33.318Z,5.43
2022-08-17T02:14:03.393Z,5.45
2022-08-17T02:16:37.189Z,5.32
2022-08-17T02:19:08.344Z,5.75
2022-08-17T02:21:35.837Z,5.53
2022-08-17T02:24:04.183Z,5.93
2022-08-17T02:26:32.934Z,5.32
2022-08-17T02:29:01.520Z,5.55
2022-08-17T02:31:31.205Z,6.25
2022-08-17T02:34:03.888Z,5.90
2022-08-17T02:36:34.489Z,6.10
2022-08-17T02:39:02.325Z,6.18
2022-08-17T02:41:29.863Z,5.45
2022-08-17T02:43:58.889Z,5.13
2022-08-17T02:46:28.442Z,4.72
2022-08-17T02:51:24.367Z,5.80
2022-08-17T02:53:52.101Z,5.25
2022-08-17T02:56:19.676Z,5.60
2022-08-17T02:58:47.165Z,6.38
2022-08-17T03:01:16.256Z,5.35
2022-08-17T03:03:44.892Z,5.90
2022-08-17T03:06:12.701Z,5.03
2022-08-17T03:08:40.759Z,5.35
2022-08-17T03:11:10.582Z,6.35
2022-08-17T03:13:37.964Z,5.88
2022-08-17T03:16:05.822Z,5.65
2022-08-17T03:18:35.149Z,5.25
2022-08-17T03:21:04.684Z,5.68
2022-08-17T03:26:01.169Z,5.88
2022-08-17T03:28:29.757Z,5.03
2022-08-17T03:30:59.153Z,5.35
2022-08-17T03:33:26.492Z,5.22
2022-08-17T03:35:55.529Z,5.50
2022-08-17T03:38:23.381Z,5.32
2022-08-17T03:40:59.066Z,5.28
2022-08-17T03:43:29.898Z,5.53
2022-08-17T03:46:26.907Z,5.35
2022-08-17T03:49:15.481Z,5.00
2022-08-17T03:52:04.303Z,4.72
2022-08-17T03:54:51.024Z,5.05
2022-08-17T03:57:19.385Z,4.70
2022-08-17T03:59:47.685Z,4.95
2022-08-17T04:02:20.231Z,4.47
2022-08-17T04:04:51.065Z,5.05
2022-08-17T04:07:22.109Z,5.10
2022-08-17T04:09:49.711Z,4.40
2022-08-17T04:12:22.756Z,5.13
2022-08-17T04:14:53.347Z,4.72
2022-08-17T04:17:24.405Z,4.47
2022-08-17T04:19:52.716Z,5.30
2022-08-17T04:22:30.333Z,4.80
2022-08-17T04:25:06.973Z,4.97
2022-08-17T04:27:34.440Z,4.95
2022-08-17T04:30:02.228Z,5.75
2022-08-17T04:33:00.742Z,5.00
2022-08-17T04:35:21.945Z,5.70
2022-08-17T04:37:51.332Z,5.95
2022-08-17T04:40:39.096Z,4.78
2022-08-17T04:43:10.390Z,4.82
2022-08-17T04:45:55.148Z,4.60
2022-08-17T04:48:33.366Z,4.63
2022-08-17T04:53:35.678Z,4.25
2022-08-17T04:56:03.934Z,4.97
2022-08-17T04:58:31.916Z,4.85
2022-08-17T05:00:59.296Z,4.32
2022-08-17T05:03:26.748Z,5.35
2022-08-17T05:05:54.299Z,5.10
2022-08-17T05:08:23.070Z,4.45
2022-08-17T05:10:52.843Z,4.60
2022-08-17T05:13:22.434Z,4.43
2022-08-17T05:15:55.213Z,4.50
2022-08-17T05:18:23.432Z,4.45
2022-08-17T05:23:22.812Z,4.85
2022-08-17T05:25:55.472Z,4.85
2022-08-17T05:28:28.013Z,5.07
2022-08-17T05:31:02.265Z,4.80
2022-08-17T05:33:35.271Z,4.53
2022-08-17T05:36:05.404Z,4.32
2022-08-17T05:38:34.718Z,4.75
2022-08-17T05:41:06.929Z,4.95
2022-08-17T05:43:37.756Z,4.78
2022-08-17T05:46:11.081Z,5.28
2022-08-17T05:48:40.541Z,5.28
2022-08-17T05:53:58.543Z,4.00
2022-08-17T05:56:42.371Z,4.15
2022-08-17T05:59:20.656Z,4.10
2022-08-17T06:01:57.883Z,4.25
2022-08-17T06:04:38.756Z,4.28
2022-08-17T06:07:12.548Z,4.15
2022-08-17T06:09:49.422Z,4.03
2022-08-17T06:12:34.395Z,4.97
2022-08-17T06:15:17.087Z,4.18
2022-08-17T06:17:44.945Z,4.00
2022-08-17T06:20:16.515Z,4.28
2022-08-17T06:22:49.630Z,6.03
2022-08-17T06:25:23.510Z,4.18
2022-08-17T06:27:55.932Z,4.57
2022-08-17T06:30:28.533Z,4.07
2022-08-17T06:33:22.522Z,4.07
2022-08-17T06:36:02.780Z,5.20
2022-08-17T06:38:50.174Z,4.68
2022-08-17T06:41:37.832Z,3.92
2022-08-17T06:44:43.152Z,3.75
2022-08-17T06:47:09.509Z,4.10
2022-08-17T06:49:47.852Z,3.88
2022-08-17T06:52:56.057Z,4.15
2022-08-17T06:55:18.583Z,4.03
2022-08-17T06:57:51.866Z,4.30
2022-08-17T07:00:24.057Z,4.10
2022-08-17T07:03:03.094Z,3.90
2022-08-17T07:05:34.240Z,4.40
2022-08-17T07:08:09.440Z,4.18
2022-08-17T07:10:43.043Z,4.35
2022-08-17T07:13:25.714Z,3.90
2022-08-17T07:16:05.481Z,3.90
2022-08-17T07:18:34.445Z,4.13
2022-08-17T07:21:17.542Z,4.05
2022-08-17T07:24:01.771Z,3.78
2022-08-17T07:26:30.785Z,4.28
2022-08-17T07:29:06.019Z,5.22
2022-08-17T07:31:39.978Z,3.50
2022-08-17T07:34:14.685Z,3.60
2022-08-17T07:36:42.984Z,4.10
2022-08-17T07:39:11.436Z,4.18
2022-08-17T07:41:53.512Z,4.07
2022-08-17T07:44:29.250Z,4.03
2022-08-17T07:47:21.327Z,3.15
2022-08-17T07:49:50.580Z,3.83
2022-08-17T07:52:48.128Z,3.97
2022-08-17T07:55:32.947Z,3.72
2022-08-17T07:58:02.209Z,3.65
2022-08-17T08:00:32.234Z,3.58
2022-08-17T08:03:12.298Z,3.85
2022-08-17T08:05:53.773Z,3.85
2022-08-17T08:08:36.511Z,3.40
2022-08-17T08:11:08.304Z,3.60
2022-08-17T08:13:45.786Z,3.63
2022-08-17T08:16:27.299Z,3.60
2022-08-17T08:18:58.539Z,4.43
2022-08-17T08:21:36.919Z,4.03
2022-08-17T08:24:24.665Z,3.72
2022-08-17T08:27:17.523Z,3.38
2022-08-17T08:29:53.861Z,3.35
2022-08-17T08:32:48.150Z,3.88
2022-08-17T08:35:32.957Z,3.78
2022-08-17T08:38:08.873Z,3.70
2022-08-17T08:40:51.000Z,3.33
2022-08-17T08:43:27.830Z,3.50
2022-08-17T08:46:01.152Z,3.25
2022-08-17T08:49:11.991Z,3.50
2022-08-17T08:51:52.910Z,3.50
2022-08-17T08:54:35.026Z,3.53
2022-08-17T08:57:25.696Z,3.53
2022-08-17T09:00:15.955Z,3.47
2022-08-17T09:03:06.431Z,3.38
2022-08-17T09:05:52.909Z,2.80
2022-08-17T09:08:37.194Z,2.95
2022-08-17T09:11:18.472Z,3.00
2022-08-17T09:14:00.982Z,3.00
2022-08-17T09:16:35.203Z,3.33
2022-08-17T09:19:10.866Z,3.00
2022-08-17T09:21:48.431Z,2.95
2022-08-17T09:24:24.295Z,3.35
2022-08-17T09:26:58.992Z,3.42
2022-08-17T09:29:30.173Z,2.90
2022-08-17T09:32:01.720Z,3.15
2022-08-17T09:34:34.249Z,3.15
2022-08-17T09:37:18.201Z,3.10
2022-08-17T09:39:56.759Z,3.15
2022-08-17T09:42:31.383Z,2.50
2022-08-17T09:45:15.618Z,2.50
2022-08-17T09:47:48.892Z,2.92
2022-08-17T09:50:55.287Z,3.33
2022-08-17T09:53:12.555Z,2.60
2022-08-17T09:55:58.338Z,2.78
2022-08-17T09:58:40.786Z,2.78
2022-08-17T10:01:21.279Z,2.70
2022-08-17T10:04:09.625Z,2.78
2022-08-17T10:06:48.649Z,2.87
2022-08-17T10:12:15.706Z,3.28
2022-08-17T10:14:58.621Z,3.00
2022-08-17T10:17:43.504Z,3.05
2022-08-17T10:20:16.573Z,2.47
2022-08-17T10:23:15.402Z,2.17
2022-08-17T10:26:08.636Z,2.88
2022-08-17T10:28:47.287Z,3.20
2022-08-17T10:31:40.054Z,3.28
2022-08-17T10:34:38.872Z,3.42
2022-08-17T10:37:33.389Z,3.25
2022-08-17T10:40:19.183Z,3.25
2022-08-17T10:42:51.825Z,3.00
2022-08-17T10:45:26.881Z,2.97
2022-08-17T10:48:05.239Z,2.70
2022-08-17T10:51:02.219Z,2.63
2022-08-17T10:53:58.059Z,2.95
2022-08-17T10:56:43.441Z,2.95
2022-08-17T10:59:47.881Z,2.90
2022-08-17T11:02:23.364Z,3.05
2022-08-17T11:05:02.481Z,2.85
2022-08-17T11:07:46.946Z,2.90
2022-08-17T11:10:30.660Z,3.25
2022-08-17T11:13:04.526Z,3.17
2022-08-17T11:15:50.736Z,2.70
2022-08-17T11:18:38.731Z,3.17
2022-08-17T11:21:22.683Z,3.20
2022-08-17T11:24:14.875Z,2.88
2022-08-17T11:26:47.756Z,2.47
2022-08-17T11:29:24.657Z,2.78
2022-08-17T11:32:03.741Z,3.00
2022-08-17T11:40:15.033Z,2.80
2022-08-17T11:43:09.617Z,2.90
2022-08-17T11:45:56.893Z,3.13
2022-08-17T11:48:54.168Z,2.80
2022-08-17T11:51:33.904Z,2.50
2022-08-17T11:56:59.421Z,2.80
2022-08-17T11:59:59.073Z,2.35
2022-08-17T12:02:35.716Z,2.83
2022-08-17T12:05:27.629Z,2.58
2022-08-17T12:08:06.188Z,2.53
2022-08-17T12:10:37.088Z,2.35
2022-08-17T12:13:11.007Z,2.50
2022-08-17T12:15:43.282Z,2.80
2022-08-17T12:18:19.710Z,2.50
2022-08-17T12:21:01.161Z,2.63
2022-08-17T12:23:38.240Z,2.75
2022-08-17T12:26:12.930Z,2.83
2022-08-17T12:28:45.890Z,2.63
2022-08-17T12:31:19.666Z,2.58
2022-08-17T12:33:48.145Z,2.88
2022-08-17T12:41:33.145Z,2.08
2022-08-17T12:44:03.357Z,2.28
2022-08-17T12:46:35.109Z,2.15
2022-08-17T12:49:27.016Z,2.63
2022-08-17T12:52:03.054Z,2.70
2022-08-17T12:54:40.384Z,2.47
2022-08-17T12:57:13.709Z,2.63
2022-08-17T12:59:43.600Z,2.45
2022-08-17T13:02:21.997Z,3.08
2022-08-17T13:04:49.813Z,2.72
2022-08-17T13:07:28.430Z,2.80
2022-08-17T13:09:57.432Z,2.80
2022-08-17T13:12:30.379Z,2.90
2022-08-17T13:14:58.220Z,3.17
2022-08-17T13:17:28.097Z,3.15
2022-08-17T13:19:55.506Z,3.85
2022-08-17T13:22:24.017Z,4.67
2022-08-17T13:24:54.211Z,4.00
2022-08-17T13:27:26.211Z,4.05
2022-08-17T13:29:57.394Z,4.53
2022-08-17T13:32:36.027Z,3.92
2022-08-17T13:35:35.400Z,4.38
2022-08-17T13:38:09.096Z,4.85
2022-08-17T13:40:43.476Z,4.65
2022-08-17T13:43:12.576Z,5.90
2022-08-17T13:45:50.770Z,6.97
2022-08-17T13:48:24.992Z,6.63
2022-08-17T13:51:24.936Z,7.65
2022-08-17T13:53:56.545Z,8.13
2022-08-17T13:56:37.621Z,8.27
2022-08-17T13:59:11.437Z,9.10
2022-08-17T14:01:41.311Z,9.40
2022-08-17T14:04:11.663Z,9.40
2022-08-17T14:06:52.582Z,9.23
2022-08-17T14:09:24.472Z,9.85
2022-08-17T14:11:54.095Z,8.85
2022-08-17T14:14:23.535Z,9.98
2022-08-17T14:16:51.143Z,10.40
2022-08-17T14:19:22.537Z,10.30
2022-08-17T14:21:51.934Z,11.40
2022-08-17T14:24:32.436Z,10.95
2022-08-17T14:27:00.985Z,11.38
2022-08-17T14:29:36.265Z,12.25
2022-08-17T14:32:11.682Z,11.95
2022-08-17T14:34:39.665Z,11.77
2022-08-17T14:37:07.308Z,12.07
2022-08-17T14:39:35.920Z,11.87
2022-08-17T14:42:04.074Z,11.35
2022-08-17T14:44:33.250Z,12.55
2022-08-17T14:47:00.766Z,12.45
2022-08-17T14:49:31.785Z,11.27
2022-08-17T14:52:01.708Z,12.25
2022-08-17T14:54:34.250Z,11.82
2022-08-17T14:57:25.923Z,12.85
2022-08-17T14:59:57.723Z,11.35
2022-08-17T15:02:29.471Z,11.73
2022-08-17T15:05:05.607Z,11.20
2022-08-17T15:07:33.999Z,10.48
2022-08-17T15:10:02.667Z,11.35
2022-08-17T15:12:33.562Z,11.88
2022-08-17T15:15:04.789Z,11.00
2022-08-17T15:17:44.504Z,11.52
2022-08-17T15:20:15.412Z,11.65
2022-08-17T15:22:44.964Z,11.05
2022-08-17T15:25:13.784Z,12.73
2022-08-17T15:30:12.046Z,12.25
2022-08-17T15:32:50.569Z,12.07
2022-08-17T15:35:27.227Z,10.98
2022-08-17T15:38:08.104Z,10.70
2022-08-17T15:40:40.609Z,11.75
2022-08-17T15:43:11.414Z,10.27
2022-08-17T15:45:41.022Z,10.88
2022-08-17T15:48:09.153Z,11.23
2022-08-17T15:50:36.836Z,11.52
2022-08-17T15:53:05.081Z,11.27
2022-08-17T15:55:33.341Z,11.10
2022-08-17T15:58:01.468Z,11.75
2022-08-17T16:00:29.624Z,12.48
2022-08-17T16:03:45.180Z,11.10
2022-08-17T16:05:50.665Z,12.70
2022-08-17T16:08:21.246Z,12.30
2022-08-17T16:10:50.327Z,11.55
2022-08-17T16:13:18.370Z,12.38
2022-08-17T16:15:51.119Z,11.03
2022-08-17T16:18:32.099Z,11.27
2022-08-17T16:21:20.063Z,11.38
2022-08-17T16:23:49.245Z,11.15
2022-08-17T16:28:44.249Z,11.55
2022-08-17T16:31:12.280Z,12.65
2022-08-17T16:33:42.224Z,12.00
2022-08-17T16:36:31.004Z,10.65
2022-08-17T16:38:59.739Z,11.65
2022-08-17T16:41:46.375Z,12.20
2022-08-17T16:44:17.269Z,12.07
2022-08-17T16:46:47.259Z,13.45
2022-08-17T16:49:35.613Z,11.48
2022-08-17T16:52:10.312Z,13.23
2022-08-17T16:54:41.967Z,11.73
2022-08-17T16:57:11.255Z,12.27
2022-08-17T16:59:43.712Z,12.40
2022-08-17T17:02:16.056Z,13.00
2022-08-17T17:04:51.983Z,12.65
2022-08-17T17:07:51.184Z,12.73
2022-08-17T17:10:22.841Z,12.77
2022-08-17T17:13:01.303Z,13.57
2022-08-17T17:15:43.587Z,12.55
2022-08-17T17:18:13.454Z,12.80
2022-08-17T17:20:48.411Z,13.88
2022-08-17T17:23:36.441Z,14.23
2022-08-17T17:26:12.245Z,13.38
2022-08-17T17:28:58.634Z,13.63
2022-08-17T17:31:33.965Z,13.95
2022-08-17T17:34:04.685Z,13.38
2022-08-17T17:36:40.260Z,14.20
2022-08-17T17:39:14.056Z,14.27
2022-08-17T17:41:47.372Z,13.73
2022-08-17T17:44:19.850Z,14.18
2022-08-17T17:46:53.139Z,13.32
2022-08-17T17:49:21.868Z,12.95
2022-08-17T17:52:10.017Z,13.32
2022-08-17T17:54:54.474Z,14.25
2022-08-17T17:57:32.714Z,17.08
2022-08-17T18:00:08.397Z,15.73
2022-08-17T18:02:54.137Z,16.58
2022-08-17T18:05:53.858Z,16.42
2022-08-17T18:08:35.091Z,17.23
2022-08-17T18:11:24.243Z,15.40
2022-08-17T18:14:14.907Z,15.45
2022-08-17T18:16:42.895Z,15.80
2022-08-17T18:19:14.502Z,15.82
2022-08-17T18:21:46.037Z,14.82
2022-08-17T18:24:14.761Z,15.13
2022-08-17T18:26:53.920Z,15.05
2022-08-17T18:29:31.782Z,14.27
2022-08-17T18:32:27.799Z,15.63
2022-08-17T18:34:57.182Z,14.48
2022-08-17T18:37:37.629Z,15.55
2022-08-17T18:40:26.554Z,13.35
2022-08-17T18:43:05.628Z,13.30
2022-08-17T18:48:18.553Z,13.27
2022-08-17T18:50:46.067Z,13.85
2022-08-17T18:53:30.337Z,15.40
2022-08-17T18:56:23.436Z,19.80
2022-08-17T18:58:54.848Z,21.88
2022-08-17T19:01:52.800Z,18.38
2022-08-17T19:04:36.705Z,19.90
2022-08-17T19:07:25.105Z,19.20
2022-08-17T19:09:59.459Z,17.80
2022-08-17T19:12:34.113Z,17.58
2022-08-17T19:15:03.150Z,15.45
2022-08-17T19:17:39.891Z,15.65
2022-08-17T19:20:15.887Z,15.30
2022-08-17T19:23:03.204Z,16.20
2022-08-17T19:25:34.592Z,15.02
2022-08-17T19:28:22.647Z,15.13
2022-08-17T19:33:31.892Z,15.68
2022-08-17T19:36:08.465Z,14.05
2022-08-17T19:38:48.936Z,15.80
2022-08-17T19:41:24.474Z,16.02
2022-08-17T19:44:16.316Z,16.17
2022-08-17T19:46:49.936Z,16.17
2022-08-17T19:49:41.503Z,15.65
2022-08-17T19:52:37.494Z,15.65
2022-08-17T19:55:18.277Z,15.48
2022-08-17T19:57:59.142Z,16.25
2022-08-17T20:00:32.539Z,16.75
2022-08-17T20:03:08.085Z,13.77
2022-08-17T20:06:01.389Z,14.77
2022-08-17T20:08:33.390Z,15.10
2022-08-17T20:11:08.983Z,15.43
2022-08-17T20:13:43.072Z,17.33
2022-08-17T20:16:12.939Z,14.50
2022-08-17T20:18:51.145Z,16.00
2022-08-17T20:21:27.280Z,15.10
2022-08-17T20:24:02.146Z,16.13
2022-08-17T20:26:55.142Z,15.65
2022-08-17T20:29:37.570Z,14.77
2022-08-17T20:32:21.739Z,16.00
2022-08-17T20:35:00.688Z,16.35
2022-08-17T20:37:34.515Z,15.13
2022-08-17T20:40:30.781Z,14.95
2022-08-17T20:42:58.951Z,14.68
2022-08-17T20:45:53.238Z,16.48
2022-08-17T20:48:38.331Z,16.23
2022-08-17T20:51:26.369Z,15.90
2022-08-17T20:54:27.976Z,16.23
2022-08-17T20:56:58.191Z,16.27
2022-08-17T21:00:01.237Z,16.25
2022-08-17T21:02:33.103Z,15.90
2022-08-17T21:07:58.190Z,15.70
2022-08-17T21:10:35.813Z,15.57
2022-08-17T21:13:48.685Z,14.75
2022-08-17T21:16:41.607Z,16.10
2022-08-17T21:19:26.127Z,15.52
2022-08-17T21:22:12.814Z,15.98
2022-08-17T21:24:54.275Z,16.42
2022-08-17T21:27:41.368Z,15.90
2022-08-17T21:30:16.420Z,16.60
2022-08-17T21:32:45.565Z,16.42
2022-08-17T21:35:49.864Z,14.75
2022-08-17T21:38:23.521Z,15.57
2022-08-17T21:40:53.419Z,14.80
2022-08-17T21:43:25.763Z,15.38
2022-08-17T21:45:59.464Z,15.45
2022-08-17T21:48:30.171Z,15.30
2022-08-17T21:53:36.937Z,15.13
2022-08-17T21:56:05.522Z,16.50
2022-08-17T21:58:34.870Z,16.40
2022-08-17T22:01:20.036Z,15.73
2022-08-17T22:03:56.592Z,14.93
2022-08-17T22:06:26.733Z,13.63
2022-08-17T22:09:10.831Z,13.93
2022-08-17T22:11:55.528Z,14.85
2022-08-17T22:14:26.030Z,14.00
2022-08-17T22:17:16.731Z,14.70
2022-08-17T22:19:49.318Z,13.93
2022-08-17T22:22:32.673Z,14.80
2022-08-17T22:25:04.621Z,13.35
2022-08-17T22:27:52.424Z,13.63
2022-08-17T22:30:33.685Z,13.27
2022-08-17T22:33:17.906Z,14.63
2022-08-17T22:35:47.584Z,14.90
2022-08-17T22:38:32.429Z,15.10
2022-08-17T22:41:42.345Z,15.00
2022-08-17T22:44:21.040Z,13.85
2022-08-17T22:46:55.740Z,9.95
2022-08-17T22:49:26.785Z,13.88
2022-08-17T22:52:20.069Z,13.10
2022-08-17T22:55:09.628Z,13.95
2022-08-17T22:58:04.339Z,13.35
2022-08-17T23:00:37.610Z,14.30
2022-08-17T23:03:09.763Z,13.75
2022-08-17T23:05:38.442Z,13.68
2022-08-17T23:08:06.107Z,13.98
2022-08-17T23:10:33.875Z,13.10
2022-08-17T23:13:05.044Z,12.50
2022-08-17T23:15:33.985Z,12.20
2022-08-17T23:18:04.986Z,13.52
2022-08-17T23:20:35.189Z,12.18
2022-08-17T23:23:06.931Z,12.60
2022-08-17T23:25:35.516Z,12.85
2022-08-17T23:28:06.321Z,13.30
2022-08-17T23:30:39.462Z,12.00
2022-08-17T23:33:14.451Z,12.85
2022-08-17T23:35:42.113Z,14.23
2022-08-17T23:38:09.913Z,12.98
2022-08-17T23:40:39.227Z,13.43
2022-08-17T23:43:24.338Z,13.57
2022-08-17T23:45:54.280Z,13.02
2022-08-17T23:48:36.345Z,13.63
2022-08-17T23:51:08.848Z,13.32
2022-08-17T23:53:42.124Z,12.38
2022-08-17T23:56:11.429Z,13.90
2022-08-17T23:58:42.713Z,14.32
